createdAt,value
2022-11-03T00:01:40.268Z,57.67
2022-11-03T00:04:10.730Z,59.22
2022-11-03T00:06:39.972Z,61.38
2022-11-03T00:09:10.590Z,61.54
2022-11-03T00:11:40.495Z,66.19
2022-11-03T00:14:11.379Z,64.40
2022-11-03T00:16:39.793Z,58.06
2022-11-03T00:19:09.312Z,54.38
2022-11-03T00:21:37.555Z,54.78
2022-11-03T00:24:05.737Z,55.02
2022-11-03T00:26:35.849Z,57.16
2022-11-03T00:29:09.177Z,59.02
2022-11-03T00:31:39.171Z,60.40
2022-11-03T00:34:08.452Z,61.49
2022-11-03T00:36:38.640Z,66.51
2022-11-03T00:39:06.869Z,65.70
2022-11-03T00:41:34.906Z,59.03
2022-11-03T00:44:02.991Z,54.03
2022-11-03T00:46:35.045Z,54.55
2022-11-03T00:49:06.251Z,56.00
2022-11-03T00:51:37.262Z,58.06
2022-11-03T00:54:06.147Z,59.52
2022-11-03T00:56:36.548Z,60.65
2022-11-03T00:59:06.158Z,61.62
2022-11-03T01:01:38.123Z,67.24
2022-11-03T01:04:29.685Z,66.51
2022-11-03T01:06:59.570Z,58.25
2022-11-03T01:09:39.006Z,54.21
2022-11-03T01:12:09.231Z,55.45
2022-11-03T01:14:45.656Z,57.48
2022-11-03T01:17:33.599Z,59.32
2022-11-03T01:20:01.284Z,60.20
2022-11-03T01:22:28.978Z,61.58
2022-11-03T01:24:59.350Z,66.85
2022-11-03T01:27:27.045Z,65.68
2022-11-03T01:29:54.771Z,58.34
2022-11-03T01:32:22.464Z,54.64
2022-11-03T01:34:50.187Z,55.88
2022-11-03T01:37:17.959Z,57.73
2022-11-03T01:39:45.715Z,59.22
2022-11-03T01:42:14.566Z,60.63
2022-11-03T01:44:48.318Z,61.87
2022-11-03T01:47:28.071Z,67.55
2022-11-03T01:50:07.712Z,63.87
2022-11-03T01:52:58.396Z,57.11
2022-11-03T01:55:31.711Z,55.47
2022-11-03T01:58:21.836Z,57.30
2022-11-03T02:00:53.758Z,59.28
2022-11-03T02:03:23.650Z,60.93
2022-11-03T02:05:52.790Z,65.41
2022-11-03T02:08:41.537Z,65.46
2022-11-03T02:11:28.291Z,60.88
2022-11-03T02:13:55.987Z,56.65
2022-11-03T02:16:26.798Z,56.85
2022-11-03T02:18:56.875Z,58.56
2022-11-03T02:21:42.934Z,60.28
2022-11-03T02:24:32.506Z,61.79
2022-11-03T02:27:00.373Z,66.92
2022-11-03T02:29:28.158Z,65.44
2022-11-03T02:32:03.769Z,61.66
2022-11-03T02:34:42.437Z,59.93
2022-11-03T02:37:17.969Z,57.51
2022-11-03T02:39:54.592Z,56.45
2022-11-03T02:42:24.718Z,58.11
2022-11-03T02:44:55.199Z,59.81
2022-11-03T02:47:25.679Z,61.32
2022-11-03T02:52:34.669Z,64.88
2022-11-03T02:55:27.335Z,57.45
2022-11-03T02:58:23.339Z,54.07
2022-11-03T03:00:53.947Z,55.86
2022-11-03T03:03:42.598Z,58.00
2022-11-03T03:06:19.776Z,59.67
2022-11-03T03:08:53.705Z,61.07
2022-11-03T03:11:37.530Z,66.25
2022-11-03T03:14:18.192Z,63.60
2022-11-03T03:17:00.645Z,56.24
2022-11-03T03:19:49.159Z,54.76
2022-11-03T03:22:31.989Z,56.86
2022-11-03T03:25:05.636Z,59.07
2022-11-03T03:27:36.859Z,61.05
2022-11-03T03:30:07.211Z,66.31
2022-11-03T03:32:44.550Z,65.50
2022-11-03T03:35:18.235Z,59.53
2022-11-03T03:37:50.716Z,55.09
2022-11-03T03:40:25.972Z,55.58
2022-11-03T03:42:53.970Z,57.94
2022-11-03T03:45:21.922Z,60.11
2022-11-03T03:47:51.570Z,61.67
2022-11-03T03:50:24.548Z,65.97
2022-11-03T03:52:55.088Z,65.96
2022-11-03T03:55:31.372Z,59.97
2022-11-03T03:58:00.399Z,54.46
2022-11-03T04:00:28.430Z,55.23
2022-11-03T04:02:59.808Z,57.33
2022-11-03T04:05:27.671Z,59.19
2022-11-03T04:07:55.396Z,60.63
2022-11-03T04:10:23.236Z,61.87
2022-11-03T04:13:14.850Z,67.05
2022-11-03T04:16:01.110Z,63.46
2022-11-03T04:18:47.278Z,58.66
2022-11-03T04:21:33.923Z,54.94
2022-11-03T04:24:01.792Z,56.13
2022-11-03T04:26:29.932Z,58.02
2022-11-03T04:28:58.302Z,59.59
2022-11-03T04:31:27.044Z,60.84
2022-11-03T04:33:54.784Z,62.04
2022-11-03T04:36:25.111Z,67.27
2022-11-03T04:38:53.297Z,66.17
2022-11-03T04:41:24.562Z,60.79
2022-11-03T04:43:52.815Z,56.05
2022-11-03T04:46:28.661Z,55.66
2022-11-03T04:49:00.601Z,57.55
2022-11-03T04:51:32.153Z,58.99
2022-11-03T04:54:07.025Z,61.01
2022-11-03T04:56:34.804Z,66.35
2022-11-03T04:59:02.974Z,65.69
2022-11-03T05:01:30.697Z,59.27
2022-11-03T05:03:58.616Z,53.94
2022-11-03T05:06:30.159Z,54.53
2022-11-03T05:09:05.749Z,56.51
2022-11-03T05:11:39.194Z,58.18
2022-11-03T05:14:20.757Z,59.62
2022-11-03T05:16:50.365Z,61.03
2022-11-03T05:19:38.205Z,65.60
2022-11-03T05:22:12.907Z,65.82
2022-11-03T05:24:40.698Z,60.88
2022-11-03T05:27:22.117Z,56.25
2022-11-03T05:29:53.989Z,55.60
2022-11-03T05:32:30.277Z,57.51
2022-11-03T05:34:58.436Z,58.92
2022-11-03T05:37:34.035Z,60.16
2022-11-03T05:40:08.282Z,61.31
2022-11-03T05:42:42.718Z,67.31
2022-11-03T05:45:21.361Z,63.80
2022-11-03T05:47:53.229Z,57.16
2022-11-03T05:50:22.311Z,55.49
2022-11-03T05:52:53.507Z,57.16
2022-11-03T05:55:27.216Z,58.80
2022-11-03T05:58:05.019Z,60.52
2022-11-03T06:00:37.789Z,62.10
2022-11-03T06:03:06.388Z,68.89
2022-11-03T06:05:34.578Z,65.88
2022-11-03T06:08:12.915Z,59.47
2022-11-03T06:10:45.545Z,55.36
2022-11-03T06:13:20.482Z,56.33
2022-11-03T06:15:51.593Z,58.22
2022-11-03T06:18:22.561Z,59.94
2022-11-03T06:20:56.774Z,61.89
2022-11-03T06:23:25.164Z,67.69
2022-11-03T06:25:55.789Z,66.26
2022-11-03T06:28:34.801Z,59.94
2022-11-03T06:31:15.732Z,55.48
2022-11-03T06:33:44.648Z,56.26
2022-11-03T06:36:47.939Z,58.32
2022-11-03T06:39:23.871Z,60.28
2022-11-03T06:41:51.887Z,61.37
2022-11-03T06:44:25.223Z,66.56
2022-11-03T06:47:00.060Z,64.29
2022-11-03T06:49:30.989Z,56.28
2022-11-03T06:52:06.228Z,53.43
2022-11-03T06:54:33.973Z,54.75
2022-11-03T06:57:03.136Z,56.95
2022-11-03T06:59:31.587Z,58.07
2022-11-03T07:01:59.485Z,58.86
2022-11-03T07:04:28.629Z,59.63
2022-11-03T07:07:02.902Z,60.28
2022-11-03T07:09:30.608Z,60.99
2022-11-03T07:12:00.694Z,61.62
2022-11-03T07:14:31.677Z,65.82
2022-11-03T07:17:04.893Z,64.34
2022-11-03T07:19:41.649Z,59.85
2022-11-03T07:22:21.644Z,53.66
2022-11-03T07:24:53.889Z,53.22
2022-11-03T07:27:25.138Z,54.48
2022-11-03T07:29:57.828Z,55.79
2022-11-03T07:32:31.458Z,56.54
2022-11-03T07:36:13.073Z,57.85
2022-11-03T07:38:29.871Z,58.21
2022-11-03T07:41:00.091Z,59.35
2022-11-03T07:43:31.781Z,59.97
2022-11-03T07:46:01.909Z,60.37
2022-11-03T07:48:37.588Z,60.78
2022-11-03T07:51:24.222Z,61.79
2022-11-03T07:54:23.611Z,61.24
2022-11-03T07:57:29.625Z,60.80
2022-11-03T08:00:08.892Z,65.05
2022-11-03T08:02:56.383Z,57.92
2022-11-03T08:05:24.129Z,52.88
2022-11-03T08:07:52.021Z,51.76
2022-11-03T08:10:21.393Z,54.42
2022-11-03T08:12:49.099Z,53.66
2022-11-03T08:15:16.835Z,55.66
2022-11-03T08:17:44.491Z,56.20
2022-11-03T08:20:12.229Z,52.40
2022-11-03T08:22:41.621Z,52.61
2022-11-03T08:25:13.871Z,53.99
2022-11-03T08:27:41.623Z,52.25
2022-11-03T08:30:10.474Z,52.71
2022-11-03T08:32:40.525Z,54.49
2022-11-03T08:35:08.447Z,51.03
2022-11-03T08:37:36.263Z,50.53
2022-11-03T08:40:04.514Z,51.13
2022-11-03T08:42:32.189Z,49.23
2022-11-03T08:44:59.901Z,49.24
2022-11-03T08:47:27.605Z,50.20
2022-11-03T08:49:55.338Z,51.25
2022-11-03T08:52:23.112Z,50.62
2022-11-03T08:54:50.944Z,50.71
2022-11-03T08:57:18.708Z,49.76
2022-11-03T08:59:46.497Z,50.18
2022-11-03T09:02:14.215Z,47.42
2022-11-03T09:04:41.943Z,47.85
2022-11-03T09:07:09.681Z,46.35
2022-11-03T09:12:25.222Z,48.83
2022-11-03T09:14:52.919Z,47.67
2022-11-03T09:17:20.581Z,45.26
2022-11-03T09:19:48.300Z,46.98
2022-11-03T09:22:16.047Z,47.05
2022-11-03T09:24:44.095Z,47.41
2022-11-03T09:27:11.708Z,46.79
2022-11-03T09:30:06.473Z,47.50
2022-11-03T09:32:27.688Z,46.47
2022-11-03T09:34:55.384Z,44.07
2022-11-03T09:37:23.170Z,44.09
2022-11-03T09:39:53.167Z,45.21
2022-11-03T09:42:22.011Z,44.04
2022-11-03T09:44:51.657Z,44.08
2022-11-03T09:47:24.053Z,45.12
2022-11-03T09:49:52.320Z,45.03
2022-11-03T09:52:23.824Z,46.69
2022-11-03T09:54:55.369Z,46.18
2022-11-03T09:57:26.538Z,46.03
2022-11-03T09:59:54.845Z,45.40
2022-11-03T10:02:27.640Z,43.26
2022-11-03T10:04:58.007Z,43.85
2022-11-03T10:07:28.376Z,43.89
2022-11-03T10:09:58.112Z,44.25
2022-11-03T10:12:26.434Z,43.83
2022-11-03T10:14:55.415Z,43.44
2022-11-03T10:17:32.455Z,42.91
2022-11-03T10:20:02.045Z,42.43
2022-11-03T10:22:29.831Z,42.99
2022-11-03T10:25:27.134Z,42.39
2022-11-03T10:28:21.441Z,42.17
2022-11-03T10:33:52.130Z,41.31
2022-11-03T10:36:20.138Z,41.93
2022-11-03T10:38:48.122Z,42.07
2022-11-03T10:41:18.717Z,41.89
2022-11-03T10:44:00.632Z,41.56
2022-11-03T10:46:48.979Z,42.37
2022-11-03T10:49:20.514Z,40.62
2022-11-03T10:51:52.387Z,40.54
2022-11-03T10:54:24.206Z,38.47
2022-11-03T10:56:53.083Z,38.52
2022-11-03T10:59:49.052Z,38.75
2022-11-03T11:02:22.598Z,39.71
2022-11-03T11:04:59.014Z,40.38
2022-11-03T11:07:36.308Z,40.97
2022-11-03T11:10:13.556Z,40.52
2022-11-03T11:13:07.540Z,40.73
2022-11-03T11:15:40.979Z,41.00
2022-11-03T11:18:09.732Z,42.01
2022-11-03T11:20:41.658Z,41.55
2022-11-03T11:23:27.495Z,41.81
2022-11-03T11:26:11.566Z,42.37
2022-11-03T11:28:41.551Z,41.48
2022-11-03T11:31:42.089Z,42.04
2022-11-03T11:34:09.853Z,42.35
2022-11-03T11:36:41.750Z,41.56
2022-11-03T11:39:28.621Z,41.43
2022-11-03T11:42:17.447Z,41.26
2022-11-03T11:45:00.378Z,42.06
2022-11-03T11:47:34.142Z,42.31
2022-11-03T11:50:08.599Z,42.99
2022-11-03T11:52:40.766Z,42.93
2022-11-03T11:55:30.264Z,43.02
2022-11-03T11:58:01.759Z,43.79
2022-11-03T12:00:32.567Z,43.42
2022-11-03T12:03:03.008Z,43.61
2022-11-03T12:05:34.089Z,43.89
2022-11-03T12:08:02.273Z,43.93
2022-11-03T12:10:31.518Z,44.89
2022-11-03T12:12:59.923Z,44.87
2022-11-03T12:15:57.030Z,44.76
2022-11-03T12:18:40.812Z,45.24
2022-11-03T12:21:13.964Z,46.32
2022-11-03T12:23:43.797Z,46.64
2022-11-03T12:26:27.005Z,46.88
2022-11-03T12:28:55.019Z,46.30
2022-11-03T12:31:22.752Z,46.66
2022-11-03T12:33:50.433Z,46.55
2022-11-03T12:36:18.092Z,46.90
2022-11-03T12:38:45.787Z,47.60
2022-11-03T12:41:22.203Z,47.05
2022-11-03T12:43:51.581Z,47.49
2022-11-03T12:46:20.917Z,47.71
2022-11-03T12:48:49.648Z,48.13
2022-11-03T12:51:19.145Z,48.17
2022-11-03T12:53:47.608Z,47.88
2022-11-03T12:56:16.361Z,47.91
2022-11-03T12:58:44.474Z,47.78
2022-11-03T13:01:12.230Z,48.49
2022-11-03T13:03:40.601Z,48.42
2022-11-03T13:06:10.258Z,48.56
2022-11-03T13:08:38.274Z,49.01
2022-11-03T13:11:29.611Z,48.51
2022-11-03T13:13:58.013Z,48.77
2022-11-03T13:16:25.796Z,49.78
2022-11-03T13:18:53.479Z,49.87
2022-11-03T13:21:21.369Z,50.05
2022-11-03T13:23:49.052Z,50.42
2022-11-03T13:26:16.651Z,49.70
2022-11-03T13:28:44.481Z,49.58
2022-11-03T13:31:12.771Z,49.51
2022-11-03T13:33:40.391Z,49.91
2022-11-03T13:36:08.451Z,50.39
2022-11-03T13:38:36.133Z,51.47
2022-11-03T13:41:08.826Z,51.11
2022-11-03T13:43:37.035Z,51.51
2022-11-03T13:46:05.207Z,52.05
2022-11-03T13:51:21.669Z,52.87
2022-11-03T13:59:25.088Z,54.70
2022-11-03T14:07:13.241Z,54.78
2022-11-03T14:09:41.049Z,55.35
2022-11-03T14:12:27.524Z,56.01
2022-11-03T14:14:55.271Z,56.33
2022-11-03T14:17:24.550Z,56.90
2022-11-03T14:19:56.510Z,57.03
2022-11-03T14:22:25.534Z,57.58
2022-11-03T14:24:53.166Z,58.23
2022-11-03T14:27:20.882Z,58.58
2022-11-03T14:29:52.057Z,58.85
2022-11-03T14:32:20.503Z,59.40
2022-11-03T14:34:48.681Z,60.02
2022-11-03T14:37:16.492Z,60.40
2022-11-03T14:39:44.254Z,59.94
2022-11-03T14:42:17.325Z,60.48
2022-11-03T14:44:46.792Z,60.76
2022-11-03T14:47:21.580Z,61.43
2022-11-03T14:49:49.827Z,61.94
2022-11-03T14:52:17.859Z,66.29
2022-11-03T14:54:45.593Z,64.07
2022-11-03T14:57:13.374Z,56.33
2022-11-03T14:59:42.046Z,53.51
2022-11-03T15:02:10.303Z,54.16
2022-11-03T15:04:38.198Z,54.98
2022-11-03T15:07:06.106Z,55.76
2022-11-03T15:09:33.756Z,56.31
2022-11-03T15:12:01.453Z,56.93
2022-11-03T15:14:29.918Z,57.63
2022-11-03T15:16:57.614Z,58.65
2022-11-03T15:19:25.482Z,59.59
2022-11-03T15:21:53.247Z,60.43
2022-11-03T15:27:08.641Z,66.18
2022-11-03T15:29:37.609Z,65.75
2022-11-03T15:32:05.708Z,60.44
2022-11-03T15:34:33.356Z,55.37
2022-11-03T15:37:01.075Z,54.20
2022-11-03T15:39:29.852Z,55.58
2022-11-03T15:41:57.737Z,57.24
2022-11-03T15:44:26.061Z,58.61
2022-11-03T15:46:53.685Z,59.76
2022-11-03T15:49:21.441Z,60.90
2022-11-03T15:51:49.170Z,62.04
2022-11-03T15:54:16.886Z,66.46
2022-11-03T15:56:44.642Z,65.63
2022-11-03T15:59:12.274Z,61.28
2022-11-03T16:01:40.021Z,55.36
2022-11-03T16:04:07.976Z,54.30
2022-11-03T16:07:01.615Z,55.90
2022-11-03T16:09:23.286Z,57.53
2022-11-03T16:11:51.081Z,59.27
2022-11-03T16:14:18.903Z,60.50
2022-11-03T16:16:46.635Z,61.90
2022-11-03T16:19:14.378Z,66.24
2022-11-03T16:21:42.181Z,65.91
2022-11-03T16:24:09.944Z,61.16
2022-11-03T16:26:37.642Z,55.68
2022-11-03T16:29:05.514Z,55.05
2022-11-03T16:31:33.185Z,56.82
2022-11-03T16:34:00.905Z,57.54
2022-11-03T16:36:28.722Z,58.88
2022-11-03T16:38:56.658Z,60.46
2022-11-03T16:41:24.382Z,60.39
2022-11-03T16:43:52.236Z,61.50
2022-11-03T16:46:20.031Z,65.08
2022-11-03T16:48:47.840Z,64.51
2022-11-03T16:51:15.580Z,62.10
2022-11-03T16:53:43.217Z,57.87
2022-11-03T16:56:10.920Z,55.10
2022-11-03T16:58:38.723Z,56.39
2022-11-03T17:01:06.485Z,57.87
2022-11-03T17:03:34.594Z,58.37
2022-11-03T17:06:02.243Z,58.87
2022-11-03T17:08:51.681Z,60.29
2022-11-03T17:11:35.890Z,60.94
2022-11-03T17:14:13.170Z,65.46
2022-11-03T17:16:48.560Z,65.94
2022-11-03T17:19:16.349Z,61.61
2022-11-03T17:21:44.008Z,56.30
2022-11-03T17:24:13.207Z,54.46
2022-11-03T17:26:52.427Z,55.24
2022-11-03T17:29:23.933Z,56.75
2022-11-03T17:31:51.860Z,58.20
2022-11-03T17:34:23.861Z,59.61
2022-11-03T17:36:53.063Z,60.83
2022-11-03T17:39:29.001Z,61.98
2022-11-03T17:42:18.765Z,67.09
2022-11-03T17:44:48.768Z,65.87
2022-11-03T17:47:17.452Z,59.00
2022-11-03T17:49:45.919Z,53.93
2022-11-03T17:52:24.988Z,54.25
2022-11-03T17:54:58.017Z,55.76
2022-11-03T17:57:26.976Z,57.64
2022-11-03T17:59:56.673Z,59.16
2022-11-03T18:02:30.928Z,60.17
2022-11-03T18:05:16.868Z,61.18
2022-11-03T18:07:47.931Z,66.52
2022-11-03T18:10:15.686Z,64.82
2022-11-03T18:13:07.172Z,58.61
2022-11-03T18:15:39.184Z,53.88
2022-11-03T18:18:13.500Z,55.19
2022-11-03T18:20:50.355Z,56.11
2022-11-03T18:23:26.474Z,58.70
2022-11-03T18:25:54.408Z,60.27
2022-11-03T18:28:22.544Z,61.69
2022-11-03T18:30:53.117Z,66.47
2022-11-03T18:33:31.005Z,67.96
2022-11-03T18:36:03.131Z,64.67
2022-11-03T18:38:30.840Z,62.21
2022-11-03T18:40:58.469Z,59.76
2022-11-03T18:43:26.387Z,55.67
2022-11-03T18:45:54.237Z,54.44
2022-11-03T18:48:21.974Z,55.35
2022-11-03T18:50:50.903Z,57.28
2022-11-03T18:53:21.198Z,59.04
2022-11-03T18:55:49.399Z,60.80
2022-11-03T18:58:20.330Z,64.64
2022-11-03T19:00:48.230Z,67.48
2022-11-03T19:03:18.244Z,64.67
2022-11-03T19:05:49.066Z,61.67
2022-11-03T19:08:25.925Z,56.38
2022-11-03T19:10:55.514Z,53.70
2022-11-03T19:13:29.823Z,55.27
2022-11-03T19:15:59.183Z,57.53
2022-11-03T19:18:35.562Z,59.35
2022-11-03T19:21:13.023Z,60.83
2022-11-03T19:23:44.906Z,66.17
2022-11-03T19:26:33.590Z,66.49
2022-11-03T19:29:07.094Z,63.14
2022-11-03T19:31:40.043Z,60.62
2022-11-03T19:34:14.416Z,56.82
2022-11-03T19:36:43.811Z,55.03
2022-11-03T19:39:20.668Z,56.22
2022-11-03T19:42:07.236Z,57.01
2022-11-03T19:47:14.357Z,61.33
2022-11-03T19:49:42.576Z,67.30
2022-11-03T19:52:15.499Z,67.07
2022-11-03T19:54:47.124Z,61.84
2022-11-03T19:57:17.035Z,59.74
2022-11-03T19:59:45.327Z,55.39
2022-11-03T20:02:15.636Z,54.30
2022-11-03T20:04:46.699Z,55.20
2022-11-03T20:07:15.649Z,57.34
2022-11-03T20:09:44.034Z,59.11
2022-11-03T20:12:17.891Z,60.67
2022-11-03T20:14:45.788Z,64.87
2022-11-03T20:17:18.074Z,66.42
2022-11-03T20:19:45.821Z,61.93
2022-11-03T20:22:23.701Z,57.96
2022-11-03T20:24:57.809Z,55.55
2022-11-03T20:27:25.561Z,56.82
2022-11-03T20:29:53.375Z,58.55
2022-11-03T20:32:21.012Z,61.28
2022-11-03T20:34:48.679Z,65.26
2022-11-03T20:37:21.227Z,65.13
2022-11-03T20:39:49.156Z,60.31
2022-11-03T20:42:26.753Z,56.93
2022-11-03T20:44:56.172Z,57.61
2022-11-03T20:47:24.598Z,59.70
2022-11-03T20:49:52.315Z,61.42
2022-11-03T20:52:20.336Z,64.65
2022-11-03T20:54:51.015Z,66.00
2022-11-03T20:57:18.746Z,62.66
2022-11-03T20:59:46.461Z,59.46
2022-11-03T21:02:14.337Z,55.52
2022-11-03T21:04:43.373Z,54.92
2022-11-03T21:07:13.247Z,56.92
2022-11-03T21:09:41.198Z,59.23
2022-11-03T21:12:14.252Z,61.40
2022-11-03T21:15:05.417Z,65.02
2022-11-03T21:17:51.933Z,65.74
2022-11-03T21:20:19.578Z,62.54
2022-11-03T21:22:54.699Z,58.67
2022-11-03T21:25:24.595Z,56.88
2022-11-03T21:27:54.249Z,57.16
2022-11-03T21:30:23.305Z,59.33
2022-11-03T21:32:51.201Z,61.62
2022-11-03T21:35:21.054Z,65.72
2022-11-03T21:37:49.109Z,66.77
2022-11-03T21:40:16.995Z,62.30
2022-11-03T21:43:03.298Z,60.02
2022-11-03T21:45:31.261Z,56.63
2022-11-03T21:48:17.825Z,56.25
2022-11-03T21:50:46.981Z,56.93
2022-11-03T21:53:15.126Z,58.03
2022-11-03T21:55:43.087Z,64.02
2022-11-03T21:58:11.029Z,65.34
2022-11-03T22:00:38.905Z,60.23
2022-11-03T22:03:07.238Z,55.43
2022-11-03T22:05:35.400Z,55.10
2022-11-03T22:08:03.221Z,57.51
2022-11-03T22:10:30.903Z,59.32
2022-11-03T22:13:00.752Z,62.37
2022-11-03T22:15:47.334Z,65.01
2022-11-03T22:18:15.057Z,59.60
2022-11-03T22:21:01.352Z,57.25
2022-11-03T22:23:47.523Z,58.78
2022-11-03T22:26:35.113Z,60.10
2022-11-03T22:29:25.567Z,64.07
2022-11-03T22:31:53.240Z,66.60
2022-11-03T22:34:39.570Z,61.81
2022-11-03T22:37:07.591Z,55.65
2022-11-03T22:39:53.917Z,54.46
2022-11-03T22:42:40.386Z,56.37
2022-11-03T22:45:28.924Z,58.45
2022-11-03T22:47:57.342Z,60.45
2022-11-03T22:50:25.531Z,66.34
2022-11-03T22:52:53.204Z,67.43
2022-11-03T22:55:20.913Z,61.02
2022-11-03T22:57:48.828Z,57.59
2022-11-03T23:00:17.434Z,55.01
2022-11-03T23:02:45.089Z,55.59
2022-11-03T23:05:12.796Z,57.03
2022-11-03T23:07:41.654Z,59.54
2022-11-03T23:10:09.721Z,61.71
2022-11-03T23:12:37.383Z,67.76
2022-11-03T23:15:24.025Z,65.99
2022-11-03T23:18:10.197Z,60.18
2022-11-03T23:20:56.884Z,54.46
2022-11-03T23:23:44.026Z,53.72
2022-11-03T23:26:11.997Z,56.77
2022-11-03T23:28:39.978Z,59.81
2022-11-03T23:31:08.369Z,60.97
2022-11-03T23:33:36.354Z,65.37
2022-11-03T23:36:09.437Z,66.79
2022-11-03T23:38:38.497Z,61.55
2022-11-03T23:41:24.917Z,56.69
2022-11-03T23:43:52.892Z,54.67
2022-11-03T23:46:45.270Z,57.08
2022-11-03T23:49:14.310Z,60.29
2022-11-03T23:51:42.237Z,64.89
2022-11-03T23:54:11.373Z,65.82
2022-11-03T23:57:03.638Z,63.82
2022-11-03T23:59:33.660Z,58.16
